sensor_id;sensor_type;location;lat;lon;timestamp;P1;durP1;ratioP1;P2;durP2;ratioP2
7017;SDS011;3549;42.162;24.726;2022-10-16T00:01:03;19.60;;;10.67;;
7017;SDS011;3549;42.162;24.726;2022-10-16T00:03:39;18.13;;;11.27;;
7017;SDS011;3549;42.162;24.726;2022-10-16T00:06:06;19.37;;;11.40;;
7017;SDS011;3549;42.162;24.726;2022-10-16T00:08:33;17.77;;;10.63;;
7017;SDS011;3549;42.162;24.726;2022-10-16T00:11:06;21.10;;;10.90;;
7017;SDS011;3549;42.162;24.726;2022-10-16T00:13:40;19.83;;;10.87;;
7017;SDS011;3549;42.162;24.726;2022-10-16T00:16:07;16.37;;;9.90;;
7017;SDS011;3549;42.162;24.726;2022-10-16T00:18:33;17.53;;;10.57;;
7017;SDS011;3549;42.162;24.726;2022-10-16T00:21:03;19.77;;;11.00;;
7017;SDS011;3549;42.162;24.726;2022-10-16T00:23:29;19.07;;;10.93;;
7017;SDS011;3549;42.162;24.726;2022-10-16T00:25:56;19.27;;;10.80;;
7017;SDS011;3549;42.162;24.726;2022-10-16T00:28:26;19.70;;;11.47;;
7017;SDS011;3549;42.162;24.726;2022-10-16T00:30:52;18.50;;;11.13;;
7017;SDS011;3549;42.162;24.726;2022-10-16T00:33:18;20.40;;;11.17;;
7017;SDS011;3549;42.162;24.726;2022-10-16T00:35:44;18.47;;;11.37;;
7017;SDS011;3549;42.162;24.726;2022-10-16T00:38:10;19.43;;;11.47;;
7017;SDS011;3549;42.162;24.726;2022-10-16T00:40:35;19.63;;;11.17;;
7017;SDS011;3549;42.162;24.726;2022-10-16T00:43:01;20.17;;;11.90;;
7017;SDS011;3549;42.162;24.726;2022-10-16T00:45:26;20.43;;;12.00;;
7017;SDS011;3549;42.162;24.726;2022-10-16T00:47:52;20.27;;;12.10;;
7017;SDS011;3549;42.162;24.726;2022-10-16T00:52:52;19.90;;;11.70;;
7017;SDS011;3549;42.162;24.726;2022-10-16T00:55:18;27.13;;;12.43;;
7017;SDS011;3549;42.162;24.726;2022-10-16T00:57:44;22.00;;;12.50;;
7017;SDS011;3549;42.162;24.726;2022-10-16T01:00:11;25.10;;;13.93;;
7017;SDS011;3549;42.162;24.726;2022-10-16T01:02:40;27.77;;;15.17;;
7017;SDS011;3549;42.162;24.726;2022-10-16T01:05:06;22.40;;;13.53;;
7017;SDS011;3549;42.162;24.726;2022-10-16T01:07:45;23.07;;;13.67;;
7017;SDS011;3549;42.162;24.726;2022-10-16T01:10:44;24.33;;;14.13;;
7017;SDS011;3549;42.162;24.726;2022-10-16T01:13:27;22.67;;;13.80;;
7017;SDS011;3549;42.162;24.726;2022-10-16T01:16:05;27.30;;;16.03;;
7017;SDS011;3549;42.162;24.726;2022-10-16T01:21:29;25.20;;;13.23;;
7017;SDS011;3549;42.162;24.726;2022-10-16T01:24:06;21.43;;;12.97;;
7017;SDS011;3549;42.162;24.726;2022-10-16T01:29:26;21.70;;;13.90;;
7017;SDS011;3549;42.162;24.726;2022-10-16T01:32:04;25.73;;;13.63;;
7017;SDS011;3549;42.162;24.726;2022-10-16T01:34:42;23.40;;;13.13;;
7017;SDS011;3549;42.162;24.726;2022-10-16T01:37:20;23.87;;;12.93;;
7017;SDS011;3549;42.162;24.726;2022-10-16T01:39:54;25.23;;;12.83;;
7017;SDS011;3549;42.162;24.726;2022-10-16T01:42:24;22.10;;;13.50;;
7017;SDS011;3549;42.162;24.726;2022-10-16T01:44:56;29.47;;;16.23;;
7017;SDS011;3549;42.162;24.726;2022-10-16T01:47:24;28.87;;;15.63;;
7017;SDS011;3549;42.162;24.726;2022-10-16T01:49:52;21.90;;;13.10;;
7017;SDS011;3549;42.162;24.726;2022-10-16T01:52:21;24.10;;;13.20;;
7017;SDS011;3549;42.162;24.726;2022-10-16T01:54:51;28.47;;;12.53;;
7017;SDS011;3549;42.162;24.726;2022-10-16T01:57:20;21.67;;;12.73;;
7017;SDS011;3549;42.162;24.726;2022-10-16T01:59:47;21.27;;;12.70;;
7017;SDS011;3549;42.162;24.726;2022-10-16T02:02:17;25.00;;;13.20;;
7017;SDS011;3549;42.162;24.726;2022-10-16T02:04:46;20.83;;;12.50;;
7017;SDS011;3549;42.162;24.726;2022-10-16T02:07:16;20.70;;;12.87;;
7017;SDS011;3549;42.162;24.726;2022-10-16T02:09:42;25.20;;;13.87;;
7017;SDS011;3549;42.162;24.726;2022-10-16T02:12:09;28.30;;;15.20;;
7017;SDS011;3549;42.162;24.726;2022-10-16T02:14:40;32.03;;;17.40;;
7017;SDS011;3549;42.162;24.726;2022-10-16T02:17:13;36.83;;;21.00;;
7017;SDS011;3549;42.162;24.726;2022-10-16T02:19:40;46.87;;;23.47;;
7017;SDS011;3549;42.162;24.726;2022-10-16T02:22:07;32.13;;;18.70;;
7017;SDS011;3549;42.162;24.726;2022-10-16T02:24:39;156.93;;;91.77;;
7017;SDS011;3549;42.162;24.726;2022-10-16T02:32:33;84.47;;;51.33;;
7017;SDS011;3549;42.162;24.726;2022-10-16T02:35:01;43.87;;;25.60;;
7017;SDS011;3549;42.162;24.726;2022-10-16T02:37:27;29.20;;;16.90;;
7017;SDS011;3549;42.162;24.726;2022-10-16T02:39:54;25.40;;;15.67;;
7017;SDS011;3549;42.162;24.726;2022-10-16T02:42:27;25.67;;;14.23;;
7017;SDS011;3549;42.162;24.726;2022-10-16T02:44:53;27.00;;;15.53;;
7017;SDS011;3549;42.162;24.726;2022-10-16T02:47:19;35.13;;;18.63;;
7017;SDS011;3549;42.162;24.726;2022-10-16T02:49:44;23.43;;;14.37;;
7017;SDS011;3549;42.162;24.726;2022-10-16T02:52:09;29.93;;;15.40;;
7017;SDS011;3549;42.162;24.726;2022-10-16T02:54:35;59.43;;;29.63;;
7017;SDS011;3549;42.162;24.726;2022-10-16T02:57:00;62.70;;;29.23;;
7017;SDS011;3549;42.162;24.726;2022-10-16T02:59:25;145.87;;;80.70;;
7017;SDS011;3549;42.162;24.726;2022-10-16T03:01:51;83.37;;;39.37;;
7017;SDS011;3549;42.162;24.726;2022-10-16T03:04:16;63.23;;;34.67;;
7017;SDS011;3549;42.162;24.726;2022-10-16T03:06:42;66.63;;;36.00;;
7017;SDS011;3549;42.162;24.726;2022-10-16T03:09:07;45.60;;;26.27;;
7017;SDS011;3549;42.162;24.726;2022-10-16T03:11:33;129.10;;;59.47;;
7017;SDS011;3549;42.162;24.726;2022-10-16T03:13:58;72.90;;;38.40;;
7017;SDS011;3549;42.162;24.726;2022-10-16T03:16:23;79.83;;;39.53;;
7017;SDS011;3549;42.162;24.726;2022-10-16T03:18:49;38.03;;;20.33;;
7017;SDS011;3549;42.162;24.726;2022-10-16T03:21:15;27.63;;;16.20;;
7017;SDS011;3549;42.162;24.726;2022-10-16T03:23:40;35.03;;;21.37;;
7017;SDS011;3549;42.162;24.726;2022-10-16T03:26:06;30.87;;;17.43;;
7017;SDS011;3549;42.162;24.726;2022-10-16T03:28:31;29.33;;;16.70;;
7017;SDS011;3549;42.162;24.726;2022-10-16T03:30:56;32.10;;;18.23;;
7017;SDS011;3549;42.162;24.726;2022-10-16T03:33:22;30.27;;;17.67;;
7017;SDS011;3549;42.162;24.726;2022-10-16T03:35:51;32.13;;;17.87;;
7017;SDS011;3549;42.162;24.726;2022-10-16T03:38:18;26.17;;;14.40;;
7017;SDS011;3549;42.162;24.726;2022-10-16T03:40:43;26.77;;;14.10;;
7017;SDS011;3549;42.162;24.726;2022-10-16T03:43:09;30.90;;;17.87;;
7017;SDS011;3549;42.162;24.726;2022-10-16T03:45:34;73.83;;;37.93;;
7017;SDS011;3549;42.162;24.726;2022-10-16T03:47:59;138.17;;;59.27;;
7017;SDS011;3549;42.162;24.726;2022-10-16T03:50:25;50.17;;;26.07;;
7017;SDS011;3549;42.162;24.726;2022-10-16T03:52:50;53.30;;;25.33;;
7017;SDS011;3549;42.162;24.726;2022-10-16T03:55:15;37.50;;;21.20;;
7017;SDS011;3549;42.162;24.726;2022-10-16T03:57:41;55.63;;;28.93;;
7017;SDS011;3549;42.162;24.726;2022-10-16T04:00:06;56.07;;;28.20;;
7017;SDS011;3549;42.162;24.726;2022-10-16T04:02:32;43.77;;;23.17;;
7017;SDS011;3549;42.162;24.726;2022-10-16T04:04:57;28.80;;;15.80;;
7017;SDS011;3549;42.162;24.726;2022-10-16T04:07:23;59.57;;;28.73;;
7017;SDS011;3549;42.162;24.726;2022-10-16T04:09:48;40.17;;;19.37;;
7017;SDS011;3549;42.162;24.726;2022-10-16T04:12:14;54.70;;;28.10;;
7017;SDS011;3549;42.162;24.726;2022-10-16T04:14:39;73.23;;;35.57;;
7017;SDS011;3549;42.162;24.726;2022-10-16T04:17:04;68.93;;;33.43;;
7017;SDS011;3549;42.162;24.726;2022-10-16T04:19:30;128.43;;;61.07;;
7017;SDS011;3549;42.162;24.726;2022-10-16T04:21:55;174.93;;;79.90;;
7017;SDS011;3549;42.162;24.726;2022-10-16T04:24:21;155.77;;;73.93;;
7017;SDS011;3549;42.162;24.726;2022-10-16T04:26:46;47.33;;;24.83;;
7017;SDS011;3549;42.162;24.726;2022-10-16T04:29:11;41.30;;;22.57;;
7017;SDS011;3549;42.162;24.726;2022-10-16T04:31:37;39.20;;;17.53;;
7017;SDS011;3549;42.162;24.726;2022-10-16T04:34:02;27.40;;;16.13;;
7017;SDS011;3549;42.162;24.726;2022-10-16T04:36:28;25.37;;;14.90;;
7017;SDS011;3549;42.162;24.726;2022-10-16T04:38:53;30.03;;;14.57;;
7017;SDS011;3549;42.162;24.726;2022-10-16T04:41:19;27.97;;;15.97;;
7017;SDS011;3549;42.162;24.726;2022-10-16T04:43:44;23.57;;;14.10;;
7017;SDS011;3549;42.162;24.726;2022-10-16T04:46:09;30.37;;;14.90;;
7017;SDS011;3549;42.162;24.726;2022-10-16T04:48:35;28.43;;;14.83;;
7017;SDS011;3549;42.162;24.726;2022-10-16T04:51:00;31.57;;;17.10;;
7017;SDS011;3549;42.162;24.726;2022-10-16T04:53:26;62.13;;;30.47;;
7017;SDS011;3549;42.162;24.726;2022-10-16T04:55:51;89.17;;;42.20;;
7017;SDS011;3549;42.162;24.726;2022-10-16T04:58:17;114.07;;;55.43;;
7017;SDS011;3549;42.162;24.726;2022-10-16T05:00:43;68.00;;;35.27;;
7017;SDS011;3549;42.162;24.726;2022-10-16T05:03:09;35.33;;;18.53;;
7017;SDS011;3549;42.162;24.726;2022-10-16T05:05:35;21.73;;;12.37;;
7017;SDS011;3549;42.162;24.726;2022-10-16T05:08:01;24.93;;;13.83;;
7017;SDS011;3549;42.162;24.726;2022-10-16T05:10:27;22.50;;;12.63;;
7017;SDS011;3549;42.162;24.726;2022-10-16T05:12:53;19.13;;;11.97;;
7017;SDS011;3549;42.162;24.726;2022-10-16T05:15:18;20.20;;;11.43;;
7017;SDS011;3549;42.162;24.726;2022-10-16T05:17:44;23.43;;;12.20;;
7017;SDS011;3549;42.162;24.726;2022-10-16T05:20:10;23.57;;;13.70;;
7017;SDS011;3549;42.162;24.726;2022-10-16T05:22:36;62.37;;;32.13;;
7017;SDS011;3549;42.162;24.726;2022-10-16T05:25:01;39.10;;;23.50;;
7017;SDS011;3549;42.162;24.726;2022-10-16T05:27:26;22.57;;;13.10;;
7017;SDS011;3549;42.162;24.726;2022-10-16T05:29:52;25.07;;;13.53;;
7017;SDS011;3549;42.162;24.726;2022-10-16T05:32:17;84.50;;;39.27;;
7017;SDS011;3549;42.162;24.726;2022-10-16T05:34:43;51.30;;;29.20;;
7017;SDS011;3549;42.162;24.726;2022-10-16T05:37:09;25.67;;;13.63;;
7017;SDS011;3549;42.162;24.726;2022-10-16T05:39:36;24.13;;;12.83;;
7017;SDS011;3549;42.162;24.726;2022-10-16T05:42:02;23.40;;;13.70;;
7017;SDS011;3549;42.162;24.726;2022-10-16T05:44:28;24.10;;;12.80;;
7017;SDS011;3549;42.162;24.726;2022-10-16T05:46:53;22.57;;;12.60;;
7017;SDS011;3549;42.162;24.726;2022-10-16T05:49:19;69.77;;;36.43;;
7017;SDS011;3549;42.162;24.726;2022-10-16T05:51:45;46.13;;;25.67;;
7017;SDS011;3549;42.162;24.726;2022-10-16T05:54:10;91.47;;;52.40;;
7017;SDS011;3549;42.162;24.726;2022-10-16T05:56:36;33.30;;;20.53;;
7017;SDS011;3549;42.162;24.726;2022-10-16T05:59:03;31.10;;;17.87;;
7017;SDS011;3549;42.162;24.726;2022-10-16T06:01:28;44.43;;;24.97;;
7017;SDS011;3549;42.162;24.726;2022-10-16T06:03:54;43.13;;;24.30;;
7017;SDS011;3549;42.162;24.726;2022-10-16T06:06:20;56.63;;;32.20;;
7017;SDS011;3549;42.162;24.726;2022-10-16T06:08:47;52.07;;;29.80;;
7017;SDS011;3549;42.162;24.726;2022-10-16T06:11:15;48.80;;;28.20;;
7017;SDS011;3549;42.162;24.726;2022-10-16T06:13:45;50.60;;;28.60;;
7017;SDS011;3549;42.162;24.726;2022-10-16T06:16:15;41.90;;;26.57;;
7017;SDS011;3549;42.162;24.726;2022-10-16T06:18:40;42.63;;;24.10;;
7017;SDS011;3549;42.162;24.726;2022-10-16T06:21:27;36.30;;;22.43;;
7017;SDS011;3549;42.162;24.726;2022-10-16T06:23:53;34.70;;;20.93;;
7017;SDS011;3549;42.162;24.726;2022-10-16T06:26:21;39.87;;;22.53;;
7017;SDS011;3549;42.162;24.726;2022-10-16T06:28:48;42.57;;;22.67;;
7017;SDS011;3549;42.162;24.726;2022-10-16T06:31:14;33.37;;;18.23;;
7017;SDS011;3549;42.162;24.726;2022-10-16T06:33:41;28.70;;;16.27;;
7017;SDS011;3549;42.162;24.726;2022-10-16T06:36:08;40.60;;;19.07;;
7017;SDS011;3549;42.162;24.726;2022-10-16T06:38:35;27.77;;;15.97;;
7017;SDS011;3549;42.162;24.726;2022-10-16T06:41:02;27.97;;;16.23;;
7017;SDS011;3549;42.162;24.726;2022-10-16T06:43:31;26.00;;;14.17;;
7017;SDS011;3549;42.162;24.726;2022-10-16T06:46:03;23.60;;;13.93;;
7017;SDS011;3549;42.162;24.726;2022-10-16T06:48:29;28.13;;;13.97;;
7017;SDS011;3549;42.162;24.726;2022-10-16T06:50:59;21.13;;;12.63;;
7017;SDS011;3549;42.162;24.726;2022-10-16T06:53:30;21.17;;;11.93;;
7017;SDS011;3549;42.162;24.726;2022-10-16T06:55:56;44.83;;;27.57;;
7017;SDS011;3549;42.162;24.726;2022-10-16T06:58:22;35.27;;;21.73;;
7017;SDS011;3549;42.162;24.726;2022-10-16T07:00:48;18.50;;;12.60;;
7017;SDS011;3549;42.162;24.726;2022-10-16T07:03:19;20.73;;;11.67;;
7017;SDS011;3549;42.162;24.726;2022-10-16T07:05:45;19.00;;;11.73;;
7017;SDS011;3549;42.162;24.726;2022-10-16T07:08:10;26.10;;;16.37;;
7017;SDS011;3549;42.162;24.726;2022-10-16T07:10:35;20.67;;;13.70;;
7017;SDS011;3549;42.162;24.726;2022-10-16T07:13:01;23.70;;;13.70;;
7017;SDS011;3549;42.162;24.726;2022-10-16T07:15:27;20.77;;;11.80;;
7017;SDS011;3549;42.162;24.726;2022-10-16T07:17:52;18.80;;;12.03;;
7017;SDS011;3549;42.162;24.726;2022-10-16T07:20:18;23.93;;;13.40;;
7017;SDS011;3549;42.162;24.726;2022-10-16T07:22:44;21.77;;;12.27;;
7017;SDS011;3549;42.162;24.726;2022-10-16T07:25:09;17.30;;;11.67;;
7017;SDS011;3549;42.162;24.726;2022-10-16T07:27:36;22.07;;;11.87;;
7017;SDS011;3549;42.162;24.726;2022-10-16T07:30:01;19.07;;;11.87;;
7017;SDS011;3549;42.162;24.726;2022-10-16T07:32:27;20.43;;;12.50;;
7017;SDS011;3549;42.162;24.726;2022-10-16T07:34:53;20.13;;;13.03;;
7017;SDS011;3549;42.162;24.726;2022-10-16T07:37:18;22.67;;;13.90;;
7017;SDS011;3549;42.162;24.726;2022-10-16T07:39:44;19.63;;;12.07;;
7017;SDS011;3549;42.162;24.726;2022-10-16T07:42:09;22.37;;;13.53;;
7017;SDS011;3549;42.162;24.726;2022-10-16T07:44:35;21.80;;;13.10;;
7017;SDS011;3549;42.162;24.726;2022-10-16T07:47:00;21.60;;;13.90;;
7017;SDS011;3549;42.162;24.726;2022-10-16T07:49:25;24.57;;;14.87;;
7017;SDS011;3549;42.162;24.726;2022-10-16T07:51:51;21.43;;;13.60;;
7017;SDS011;3549;42.162;24.726;2022-10-16T07:54:16;28.90;;;17.50;;
7017;SDS011;3549;42.162;24.726;2022-10-16T07:56:42;20.90;;;14.13;;
7017;SDS011;3549;42.162;24.726;2022-10-16T07:59:07;21.13;;;12.17;;
7017;SDS011;3549;42.162;24.726;2022-10-16T08:01:32;19.83;;;11.90;;
7017;SDS011;3549;42.162;24.726;2022-10-16T08:03:58;22.57;;;13.00;;
7017;SDS011;3549;42.162;24.726;2022-10-16T08:06:23;22.67;;;12.90;;
7017;SDS011;3549;42.162;24.726;2022-10-16T08:08:49;24.23;;;13.63;;
7017;SDS011;3549;42.162;24.726;2022-10-16T08:11:14;22.10;;;13.33;;
7017;SDS011;3549;42.162;24.726;2022-10-16T08:13:40;21.93;;;12.27;;
7017;SDS011;3549;42.162;24.726;2022-10-16T08:16:06;17.77;;;10.90;;
7017;SDS011;3549;42.162;24.726;2022-10-16T08:18:39;17.97;;;10.67;;
7017;SDS011;3549;42.162;24.726;2022-10-16T08:21:06;16.00;;;10.33;;
7017;SDS011;3549;42.162;24.726;2022-10-16T08:23:37;14.47;;;10.07;;
7017;SDS011;3549;42.162;24.726;2022-10-16T08:26:03;18.87;;;12.53;;
7017;SDS011;3549;42.162;24.726;2022-10-16T08:28:30;20.00;;;12.30;;
7017;SDS011;3549;42.162;24.726;2022-10-16T08:30:56;16.23;;;10.83;;
7017;SDS011;3549;42.162;24.726;2022-10-16T08:33:22;20.07;;;15.07;;
7017;SDS011;3549;42.162;24.726;2022-10-16T08:35:51;17.20;;;9.70;;
7017;SDS011;3549;42.162;24.726;2022-10-16T08:38:18;20.33;;;12.53;;
7017;SDS011;3549;42.162;24.726;2022-10-16T08:40:44;15.20;;;10.40;;
7017;SDS011;3549;42.162;24.726;2022-10-16T08:49:27;16.60;;;11.07;;
7017;SDS011;3549;42.162;24.726;2022-10-16T08:51:52;18.33;;;11.87;;
7017;SDS011;3549;42.162;24.726;2022-10-16T08:57:22;14.03;;;9.40;;
7017;SDS011;3549;42.162;24.726;2022-10-16T08:59:55;13.63;;;9.43;;
7017;SDS011;3549;42.162;24.726;2022-10-16T09:05:29;12.50;;;9.00;;
7017;SDS011;3549;42.162;24.726;2022-10-16T09:08:23;15.57;;;9.23;;
7017;SDS011;3549;42.162;24.726;2022-10-16T09:11:33;11.53;;;8.60;;
7017;SDS011;3549;42.162;24.726;2022-10-16T09:16:51;10.07;;;7.93;;
7017;SDS011;3549;42.162;24.726;2022-10-16T09:19:24;15.37;;;10.67;;
7017;SDS011;3549;42.162;24.726;2022-10-16T09:21:56;13.43;;;9.10;;
7017;SDS011;3549;42.162;24.726;2022-10-16T09:24:25;12.97;;;8.37;;
7017;SDS011;3549;42.162;24.726;2022-10-16T09:26:51;14.33;;;9.10;;
7017;SDS011;3549;42.162;24.726;2022-10-16T09:29:17;14.00;;;8.70;;
7017;SDS011;3549;42.162;24.726;2022-10-16T09:31:45;12.17;;;7.73;;
7017;SDS011;3549;42.162;24.726;2022-10-16T09:34:14;11.70;;;7.97;;
7017;SDS011;3549;42.162;24.726;2022-10-16T09:36:49;10.87;;;7.73;;
7017;SDS011;3549;42.162;24.726;2022-10-16T09:39:15;10.80;;;7.10;;
7017;SDS011;3549;42.162;24.726;2022-10-16T09:41:41;9.53;;;6.97;;
7017;SDS011;3549;42.162;24.726;2022-10-16T09:44:27;9.63;;;7.03;;
7017;SDS011;3549;42.162;24.726;2022-10-16T09:47:02;10.70;;;7.23;;
7017;SDS011;3549;42.162;24.726;2022-10-16T09:49:37;12.00;;;7.80;;
7017;SDS011;3549;42.162;24.726;2022-10-16T09:52:04;10.67;;;7.07;;
7017;SDS011;3549;42.162;24.726;2022-10-16T09:54:31;9.47;;;6.57;;
7017;SDS011;3549;42.162;24.726;2022-10-16T09:57:06;7.67;;;5.90;;
7017;SDS011;3549;42.162;24.726;2022-10-16T09:59:32;8.97;;;6.50;;
7017;SDS011;3549;42.162;24.726;2022-10-16T10:02:01;8.17;;;5.80;;
7017;SDS011;3549;42.162;24.726;2022-10-16T10:04:40;8.03;;;5.43;;
7017;SDS011;3549;42.162;24.726;2022-10-16T10:07:21;8.23;;;5.47;;
7017;SDS011;3549;42.162;24.726;2022-10-16T10:09:50;8.57;;;6.27;;
7017;SDS011;3549;42.162;24.726;2022-10-16T10:12:28;8.43;;;6.50;;
7017;SDS011;3549;42.162;24.726;2022-10-16T10:15:07;11.20;;;6.60;;
7017;SDS011;3549;42.162;24.726;2022-10-16T10:17:45;9.30;;;6.73;;
7017;SDS011;3549;42.162;24.726;2022-10-16T10:22:53;9.30;;;6.87;;
7017;SDS011;3549;42.162;24.726;2022-10-16T10:33:28;11.23;;;6.30;;
7017;SDS011;3549;42.162;24.726;2022-10-16T10:38:54;7.00;;;5.70;;
7017;SDS011;3549;42.162;24.726;2022-10-16T10:41:27;7.60;;;5.83;;
7017;SDS011;3549;42.162;24.726;2022-10-16T10:47:16;8.17;;;5.60;;
7017;SDS011;3549;42.162;24.726;2022-10-16T11:01:06;8.37;;;6.07;;
7017;SDS011;3549;42.162;24.726;2022-10-16T11:04:07;10.67;;;6.17;;
7017;SDS011;3549;42.162;24.726;2022-10-16T11:09:18;12.23;;;7.60;;
7017;SDS011;3549;42.162;24.726;2022-10-16T11:11:56;9.47;;;5.90;;
7017;SDS011;3549;42.162;24.726;2022-10-16T11:14:38;8.93;;;6.30;;
7017;SDS011;3549;42.162;24.726;2022-10-16T11:17:11;8.80;;;6.20;;
7017;SDS011;3549;42.162;24.726;2022-10-16T11:19:46;8.77;;;5.90;;
7017;SDS011;3549;42.162;24.726;2022-10-16T11:22:34;8.80;;;6.23;;
7017;SDS011;3549;42.162;24.726;2022-10-16T11:25:18;8.37;;;6.10;;
7017;SDS011;3549;42.162;24.726;2022-10-16T11:27:49;8.43;;;5.70;;
7017;SDS011;3549;42.162;24.726;2022-10-16T11:32:52;8.40;;;6.00;;
7017;SDS011;3549;42.162;24.726;2022-10-16T11:37:59;8.57;;;5.63;;
7017;SDS011;3549;42.162;24.726;2022-10-16T11:40:32;7.80;;;5.63;;
7017;SDS011;3549;42.162;24.726;2022-10-16T11:46:11;7.07;;;5.43;;
7017;SDS011;3549;42.162;24.726;2022-10-16T11:48:45;7.67;;;5.83;;
7017;SDS011;3549;42.162;24.726;2022-10-16T11:57:17;9.73;;;6.50;;
7017;SDS011;3549;42.162;24.726;2022-10-16T11:59:50;7.13;;;5.40;;
7017;SDS011;3549;42.162;24.726;2022-10-16T12:05:22;9.00;;;5.70;;
7017;SDS011;3549;42.162;24.726;2022-10-16T12:10:30;10.30;;;6.10;;
7017;SDS011;3549;42.162;24.726;2022-10-16T12:13:25;6.93;;;5.47;;
7017;SDS011;3549;42.162;24.726;2022-10-16T12:18:37;8.47;;;5.80;;
7017;SDS011;3549;42.162;24.726;2022-10-16T12:21:07;7.77;;;6.23;;
7017;SDS011;3549;42.162;24.726;2022-10-16T12:23:36;8.23;;;5.40;;
7017;SDS011;3549;42.162;24.726;2022-10-16T12:26:03;8.30;;;5.80;;
7017;SDS011;3549;42.162;24.726;2022-10-16T12:28:30;7.27;;;5.70;;
7017;SDS011;3549;42.162;24.726;2022-10-16T12:30:59;7.23;;;5.87;;
7017;SDS011;3549;42.162;24.726;2022-10-16T12:33:28;7.38;;;5.22;;
7017;SDS011;3549;42.162;24.726;2022-10-16T12:35:57;8.23;;;5.78;;
7017;SDS011;3549;42.162;24.726;2022-10-16T12:38:26;5.75;;;5.10;;
7017;SDS011;3549;42.162;24.726;2022-10-16T12:41:02;7.00;;;5.38;;
7017;SDS011;3549;42.162;24.726;2022-10-16T12:43:37;7.45;;;5.80;;
7017;SDS011;3549;42.162;24.726;2022-10-16T12:49:04;8.30;;;7.13;;
7017;SDS011;3549;42.162;24.726;2022-10-16T12:51:47;7.57;;;6.60;;
7017;SDS011;3549;42.162;24.726;2022-10-16T12:54:17;9.50;;;6.18;;
7017;SDS011;3549;42.162;24.726;2022-10-16T13:05:41;8.30;;;5.63;;
7017;SDS011;3549;42.162;24.726;2022-10-16T13:08:29;6.63;;;5.30;;
7017;SDS011;3549;42.162;24.726;2022-10-16T13:23:14;9.75;;;6.55;;
7017;SDS011;3549;42.162;24.726;2022-10-16T13:28:16;8.35;;;6.32;;
7017;SDS011;3549;42.162;24.726;2022-10-16T13:30:51;8.30;;;5.93;;
7017;SDS011;3549;42.162;24.726;2022-10-16T13:36:03;9.15;;;6.60;;
7017;SDS011;3549;42.162;24.726;2022-10-16T13:38:32;8.43;;;6.20;;
7017;SDS011;3549;42.162;24.726;2022-10-16T13:41:00;8.35;;;5.95;;
7017;SDS011;3549;42.162;24.726;2022-10-16T13:46:05;7.63;;;6.00;;
7017;SDS011;3549;42.162;24.726;2022-10-16T13:48:36;8.82;;;6.38;;
7017;SDS011;3549;42.162;24.726;2022-10-16T13:51:04;10.05;;;6.50;;
7017;SDS011;3549;42.162;24.726;2022-10-16T13:53:43;7.93;;;6.20;;
7017;SDS011;3549;42.162;24.726;2022-10-16T13:56:11;8.75;;;6.32;;
7017;SDS011;3549;42.162;24.726;2022-10-16T13:58:39;6.65;;;5.80;;
7017;SDS011;3549;42.162;24.726;2022-10-16T14:01:05;7.72;;;6.32;;
7017;SDS011;3549;42.162;24.726;2022-10-16T14:03:41;8.85;;;6.35;;
7017;SDS011;3549;42.162;24.726;2022-10-16T14:06:11;11.25;;;6.82;;
7017;SDS011;3549;42.162;24.726;2022-10-16T14:08:51;7.65;;;6.30;;
7017;SDS011;3549;42.162;24.726;2022-10-16T14:11:24;8.25;;;6.07;;
7017;SDS011;3549;42.162;24.726;2022-10-16T14:13:50;9.45;;;6.50;;
7017;SDS011;3549;42.162;24.726;2022-10-16T14:16:20;9.18;;;6.30;;
7017;SDS011;3549;42.162;24.726;2022-10-16T14:18:59;7.30;;;6.00;;
7017;SDS011;3549;42.162;24.726;2022-10-16T14:21:26;8.57;;;6.30;;
7017;SDS011;3549;42.162;24.726;2022-10-16T14:23:53;9.18;;;6.45;;
7017;SDS011;3549;42.162;24.726;2022-10-16T14:26:20;8.55;;;6.32;;
7017;SDS011;3549;42.162;24.726;2022-10-16T14:28:49;9.90;;;6.53;;
7017;SDS011;3549;42.162;24.726;2022-10-16T14:33:56;9.23;;;6.38;;
7017;SDS011;3549;42.162;24.726;2022-10-16T14:36:22;8.65;;;6.63;;
7017;SDS011;3549;42.162;24.726;2022-10-16T14:38:50;8.20;;;6.38;;
7017;SDS011;3549;42.162;24.726;2022-10-16T14:41:23;13.13;;;7.88;;
7017;SDS011;3549;42.162;24.726;2022-10-16T14:43:55;8.82;;;6.75;;
7017;SDS011;3549;42.162;24.726;2022-10-16T14:46:30;8.43;;;6.28;;
7017;SDS011;3549;42.162;24.726;2022-10-16T14:49:02;7.50;;;6.18;;
7017;SDS011;3549;42.162;24.726;2022-10-16T14:51:44;9.57;;;7.00;;
7017;SDS011;3549;42.162;24.726;2022-10-16T14:54:14;8.63;;;7.00;;
7017;SDS011;3549;42.162;24.726;2022-10-16T14:59:37;9.00;;;6.97;;
7017;SDS011;3549;42.162;24.726;2022-10-16T15:02:27;11.27;;;6.97;;
7017;SDS011;3549;42.162;24.726;2022-10-16T15:07:53;9.60;;;7.00;;
7017;SDS011;3549;42.162;24.726;2022-10-16T15:10:20;11.33;;;7.33;;
7017;SDS011;3549;42.162;24.726;2022-10-16T15:12:47;11.90;;;7.70;;
7017;SDS011;3549;42.162;24.726;2022-10-16T15:17:53;9.07;;;7.17;;
7017;SDS011;3549;42.162;24.726;2022-10-16T15:20:22;10.13;;;6.97;;
7017;SDS011;3549;42.162;24.726;2022-10-16T15:22:55;9.30;;;6.50;;
7017;SDS011;3549;42.162;24.726;2022-10-16T15:27:52;13.13;;;7.67;;
7017;SDS011;3549;42.162;24.726;2022-10-16T15:30:18;10.13;;;7.80;;
7017;SDS011;3549;42.162;24.726;2022-10-16T15:32:43;10.67;;;7.87;;
7017;SDS011;3549;42.162;24.726;2022-10-16T15:35:09;10.57;;;7.90;;
7017;SDS011;3549;42.162;24.726;2022-10-16T15:37:34;14.20;;;9.67;;
7017;SDS011;3549;42.162;24.726;2022-10-16T15:40:00;17.03;;;10.53;;
7017;SDS011;3549;42.162;24.726;2022-10-16T15:42:25;18.30;;;11.57;;
7017;SDS011;3549;42.162;24.726;2022-10-16T15:44:51;27.50;;;14.53;;
7017;SDS011;3549;42.162;24.726;2022-10-16T15:47:16;20.70;;;11.77;;
7017;SDS011;3549;42.162;24.726;2022-10-16T15:49:42;29.13;;;15.03;;
7017;SDS011;3549;42.162;24.726;2022-10-16T15:52:07;21.70;;;12.30;;
7017;SDS011;3549;42.162;24.726;2022-10-16T15:54:33;18.77;;;11.07;;
7017;SDS011;3549;42.162;24.726;2022-10-16T15:56:58;15.87;;;9.60;;
7017;SDS011;3549;42.162;24.726;2022-10-16T15:59:23;14.40;;;9.87;;
7017;SDS011;3549;42.162;24.726;2022-10-16T16:01:49;12.80;;;8.50;;
7017;SDS011;3549;42.162;24.726;2022-10-16T16:04:14;15.13;;;9.20;;
7017;SDS011;3549;42.162;24.726;2022-10-16T16:06:41;15.47;;;9.10;;
7017;SDS011;3549;42.162;24.726;2022-10-16T16:09:09;12.10;;;8.20;;
7017;SDS011;3549;42.162;24.726;2022-10-16T16:11:36;14.77;;;8.57;;
7017;SDS011;3549;42.162;24.726;2022-10-16T16:14:03;13.93;;;8.53;;
7017;SDS011;3549;42.162;24.726;2022-10-16T16:16:30;13.57;;;8.30;;
7017;SDS011;3549;42.162;24.726;2022-10-16T16:18:56;13.43;;;8.17;;
7017;SDS011;3549;42.162;24.726;2022-10-16T16:21:22;14.47;;;8.37;;
7017;SDS011;3549;42.162;24.726;2022-10-16T16:23:47;13.57;;;8.10;;
7017;SDS011;3549;42.162;24.726;2022-10-16T16:26:14;12.97;;;8.40;;
7017;SDS011;3549;42.162;24.726;2022-10-16T16:28:46;13.80;;;8.50;;
7017;SDS011;3549;42.162;24.726;2022-10-16T16:31:12;18.00;;;9.10;;
7017;SDS011;3549;42.162;24.726;2022-10-16T16:33:37;13.37;;;8.67;;
7017;SDS011;3549;42.162;24.726;2022-10-16T16:36:03;13.73;;;8.93;;
7017;SDS011;3549;42.162;24.726;2022-10-16T16:38:31;16.93;;;9.30;;
7017;SDS011;3549;42.162;24.726;2022-10-16T16:40:57;14.77;;;9.40;;
7017;SDS011;3549;42.162;24.726;2022-10-16T16:43:25;18.17;;;9.20;;
7017;SDS011;3549;42.162;24.726;2022-10-16T16:45:51;15.70;;;9.73;;
7017;SDS011;3549;42.162;24.726;2022-10-16T16:48:17;16.60;;;9.37;;
7017;SDS011;3549;42.162;24.726;2022-10-16T16:50:43;15.57;;;9.53;;
7017;SDS011;3549;42.162;24.726;2022-10-16T16:53:08;17.13;;;10.10;;
7017;SDS011;3549;42.162;24.726;2022-10-16T16:55:34;18.83;;;11.93;;
7017;SDS011;3549;42.162;24.726;2022-10-16T16:57:59;21.47;;;12.60;;
7017;SDS011;3549;42.162;24.726;2022-10-16T17:00:25;337.97;;;198.03;;